Time;durP1;ratioP1;P1;durP2;ratioP2;P2;SDS_P1;SDS_P2;PMS_P1;PMS_P2;Temp;Humidity;BMP_temperature;BMP_pressure;BME280_temperature;BME280_humidity;BME280_pressure;Samples;Min_cycle;Max_cycle;Signal;HPM_P1;HPM_P2
2022/12/15 00:40:38;;;;;;;30.13;14.75;;;-2.50;99.90;;;;;;5995446;23;20254;-84
2022/12/15 00:43:03;;;;;;;28.05;14.20;;;-2.70;99.90;;;;;;5994379;23;20566;-85
2022/12/15 00:48:14;;;;;;;26.17;14.25;;;-2.90;99.90;;;;;;5995760;23;20046;-85
2022/12/15 00:50:52;;;;;;;26.20;14.40;;;-2.90;99.90;;;;;;5972234;23;20453;-84
2022/12/15 01:20:44;;;;;;;31.38;15.95;;;-2.80;99.90;;;;;;5995748;23;20024;-85
2022/12/15 01:23:10;;;;;;;33.15;16.67;;;-2.80;99.90;;;;;;5971479;23;20053;-85
2022/12/15 01:25:37;;;;;;;30.25;15.13;;;-2.80;99.90;;;;;;5972371;23;20027;-84
2022/12/15 01:28:03;;;;;;;34.20;17.33;;;-2.80;99.90;;;;;;5972313;23;20016;-85
2022/12/15 01:30:29;;;;;;;34.35;17.92;;;-2.70;99.90;;;;;;5993623;23;20016;-84
2022/12/15 01:32:55;;;;;;;30.13;16.60;;;-2.70;99.90;;;;;;5995740;23;20028;-84
2022/12/15 01:35:21;;;;;;;36.45;17.92;;;-2.60;99.90;;;;;;5971728;23;20107;-85
2022/12/15 01:37:47;;;;;;;29.88;17.27;;;-2.60;99.90;;;;;;5972978;23;20038;-84
2022/12/15 01:42:59;;;;;;;29.83;16.67;;;-2.50;99.90;;;;;;5995252;23;20030;-85
2022/12/15 01:45:27;;;;;;;33.15;17.23;;;-2.40;99.90;;;;;;5971034;23;20365;-84
2022/12/15 01:47:58;;;;;;;34.03;17.80;;;-2.40;99.90;;;;;;5973810;23;20019;-84
2022/12/15 01:50:25;;;;;;;32.33;17.55;;;-2.30;99.90;;;;;;5976184;23;20062;-85
2022/12/15 01:52:54;;;;;;;28.95;15.65;;;-2.30;99.90;;;;;;5974784;23;20020;-84
2022/12/15 01:55:26;;;;;;;30.20;16.77;;;-2.20;99.90;;;;;;5996346;23;20466;-84
2022/12/15 01:57:56;;;;;;;31.38;15.68;;;-2.20;99.90;;;;;;5997843;23;20078;-85
2022/12/15 02:08:07;;;;;;;28.92;14.75;;;-2.20;99.90;;;;;;5992467;23;20106;-85
2022/12/15 02:10:58;;;;;;;31.45;15.55;;;-2.30;99.90;;;;;;5974360;23;20076;-85
2022/12/15 02:13:46;;;;;;;28.67;15.32;;;-2.30;99.90;;;;;;5995261;23;20026;-83
2022/12/15 02:16:21;;;;;;;27.40;14.60;;;-2.30;99.90;;;;;;5973291;23;20086;-84
2022/12/15 02:19:01;;;;;;;31.30;15.93;;;-2.30;99.90;;;;;;5974379;23;20019;-84
2022/12/15 02:21:46;;;;;;;29.17;15.50;;;-2.40;99.90;;;;;;5973059;23;20022;-85
2022/12/15 02:24:42;;;;;;;26.55;15.00;;;-2.40;99.90;;;;;;5972919;23;20541;-84
2022/12/15 02:27:07;;;;;;;25.52;15.52;;;-2.40;99.90;;;;;;5994094;23;20189;-84
2022/12/15 02:30:01;;;;;;;26.02;15.20;;;-2.40;99.90;;;;;;5996288;23;20034;-84
2022/12/15 02:32:36;;;;;;;28.77;14.43;;;-2.50;99.90;;;;;;5997430;23;20015;-84
2022/12/15 02:35:04;;;;;;;;;;;-2.50;99.90;;;;;;5973369;23;20051;-85
2022/12/15 02:37:40;;;;;;;29.48;14.32;;;-2.50;99.90;;;;;;6021799;23;19913;-84
2022/12/15 02:40:08;;;;;;;27.88;14.50;;;-2.40;99.90;;;;;;5972660;23;20023;-85
2022/12/15 02:42:42;;;;;;;31.15;15.88;;;-2.40;99.90;;;;;;5997398;23;20119;-85
2022/12/15 02:45:15;;;;;;;28.35;15.15;;;-2.40;99.90;;;;;;5970632;23;20016;-84
2022/12/15 02:48:10;;;;;;;29.10;15.48;;;-2.40;99.90;;;;;;5977932;23;20505;-84
2022/12/15 02:50:42;;;;;;;27.65;14.85;;;-2.40;99.90;;;;;;6000936;23;20492;-85
2022/12/15 02:53:36;;;;;;;30.90;14.13;;;-2.40;99.90;;;;;;6000437;23;20029;-84
2022/12/15 02:56:17;;;;;;;29.05;14.77;;;-2.40;99.90;;;;;;5976830;23;20019;-84
2022/12/15 02:59:17;;;;;;;27.00;13.95;;;-2.40;99.90;;;;;;5999607;23;20023;-85
2022/12/15 03:01:50;;;;;;;27.55;14.20;;;-2.40;99.90;;;;;;5976031;23;20102;-85
2022/12/15 03:04:16;;;;;;;27.35;13.77;;;-2.50;99.90;;;;;;5999904;23;20099;-84
2022/12/15 03:06:42;;;;;;;28.23;14.27;;;-2.40;99.90;;;;;;5977735;23;20019;-84
2022/12/15 03:09:08;;;;;;;29.92;13.90;;;-2.50;99.90;;;;;;5999776;23;20094;-84
2022/12/15 03:11:35;;;;;;;24.80;13.73;;;-2.50;99.90;;;;;;6001500;23;20020;-85
2022/12/15 03:14:01;;;;;;;26.58;13.73;;;-2.40;99.90;;;;;;5975238;23;20476;-84
2022/12/15 03:16:27;;;;;;;25.85;13.13;;;-2.40;99.90;;;;;;6000652;23;20050;-84
2022/12/15 03:18:52;;;;;;;22.92;13.25;;;-2.50;99.90;;;;;;5977766;23;20015;-84
2022/12/15 03:21:18;;;;;;;27.92;13.23;;;-2.40;99.90;;;;;;6000034;23;20067;-85
2022/12/15 03:23:44;;;;;;;26.42;13.07;;;-2.40;99.90;;;;;;5977201;23;20015;-85
2022/12/15 03:26:10;;;;;;;26.10;13.15;;;-2.50;99.90;;;;;;5977250;23;20047;-84
2022/12/15 03:28:36;;;;;;;23.27;12.85;;;-2.50;99.90;;;;;;5976015;23;20026;-85
2022/12/15 03:31:02;;;;;;;27.23;13.80;;;-2.40;99.90;;;;;;5977187;23;20015;-85
2022/12/15 03:33:27;;;;;;;23.20;13.05;;;-2.50;99.90;;;;;;5976846;23;20019;-84
2022/12/15 03:35:53;;;;;;;25.77;13.20;;;-2.50;99.90;;;;;;6001998;23;20015;-85
2022/12/15 03:38:18;;;;;;;25.15;14.45;;;-2.60;99.90;;;;;;6000981;23;20801;-84
2022/12/15 03:40:44;;;;;;;21.73;13.25;;;-2.60;99.90;;;;;;5977823;23;20496;-84
2022/12/15 03:43:10;;;;;;;23.35;14.13;;;-2.60;99.90;;;;;;5977281;23;20038;-84
2022/12/15 03:45:35;;;;;;;26.02;14.05;;;-2.60;99.90;;;;;;6000088;23;20012;-84
2022/12/15 03:48:01;;;;;;;31.38;13.65;;;-2.50;99.90;;;;;;5994302;23;20276;-85
2022/12/15 03:50:28;;;;;;;23.33;13.10;;;-2.50;99.90;;;;;;6000950;23;20360;-85
2022/12/15 03:52:56;;;;;;;26.15;14.27;;;-2.50;99.90;;;;;;6023568;23;20015;-84
2022/12/15 03:55:23;;;;;;;25.25;13.43;;;-2.50;99.90;;;;;;6000989;23;20019;-83
2022/12/15 03:57:49;;;;;;;24.90;13.65;;;-2.50;99.90;;;;;;6001637;23;20126;-85
2022/12/15 04:00:19;;;;;;;28.75;14.38;;;-2.50;99.90;;;;;;6021805;23;20381;-85
2022/12/15 04:02:46;;;;;;;23.00;12.63;;;-2.50;99.90;;;;;;6001610;23;20111;-84
2022/12/15 04:05:25;;;;;;;23.33;13.23;;;-2.50;99.90;;;;;;6023581;23;20381;-85
2022/12/15 04:07:51;;;;;;;22.83;12.65;;;-2.60;99.90;;;;;;6000964;23;20011;-84
2022/12/15 04:10:17;;;;;;;25.13;14.13;;;-2.50;99.90;;;;;;6001758;23;20493;-84
2022/12/15 04:12:42;;;;;;;26.00;13.10;;;-2.60;99.90;;;;;;6025110;23;20086;-85
2022/12/15 04:15:10;;;;;;;26.38;14.35;;;-2.70;99.90;;;;;;5998718;23;20066;-85
2022/12/15 04:17:37;;;;;;;25.98;13.93;;;-2.70;99.90;;;;;;6024190;23;20032;-85
2022/12/15 04:20:10;;;;;;;24.40;14.60;;;-2.80;99.90;;;;;;6000076;23;20019;-85
2022/12/15 04:22:40;;;;;;;23.30;13.70;;;-2.80;99.90;;;;;;6024418;23;20038;-85
2022/12/15 05:33:56;;;;;;;23.45;13.23;;;-2.50;99.90;;;;;;6024369;23;20050;-85
2022/12/15 05:36:22;;;;;;;28.50;14.52;;;-2.40;99.90;;;;;;6001580;23;20022;-85
2022/12/15 05:38:52;;;;;;;22.20;12.80;;;-2.30;99.90;;;;;;6001245;23;20109;-85
2022/12/15 05:41:21;;;;;;;27.40;14.85;;;-2.40;99.90;;;;;;5999881;23;20469;-85
2022/12/15 05:43:46;;;;;;;27.33;13.73;;;-2.30;99.90;;;;;;5999850;23;20019;-84
2022/12/15 05:46:13;;;;;;;23.10;13.63;;;-2.30;99.90;;;;;;5999627;23;20023;-85
2022/12/15 05:48:40;;;;;;;26.38;13.10;;;-2.30;99.90;;;;;;6000555;23;20034;-84
2022/12/15 05:51:07;;;;;;;25.92;13.38;;;-2.10;99.90;;;;;;6001453;23;20048;-85
2022/12/15 05:53:35;;;;;;;27.85;14.65;;;-2.10;99.90;;;;;;5976068;23;20326;-84
2022/12/15 05:56:05;;;;;;;25.70;14.18;;;-2.20;99.90;;;;;;5977532;23;20011;-84
2022/12/15 05:58:31;;;;;;;24.83;13.18;;;-2.10;99.90;;;;;;5975346;23;20129;-84
2022/12/15 06:01:06;;;;;;;23.05;14.18;;;-2.10;99.90;;;;;;5978120;23;20115;-85
2022/12/15 06:03:32;;;;;;;21.58;13.40;;;-2.10;99.90;;;;;;6002329;23;20453;-84
2022/12/15 06:05:59;;;;;;;27.35;14.40;;;-2.10;99.90;;;;;;5977672;23;20023;-84
2022/12/15 06:08:28;;;;;;;23.38;13.88;;;-2.10;99.90;;;;;;6000318;23;20030;-84
2022/12/15 06:10:55;;;;;;;23.20;13.90;;;-2.10;99.90;;;;;;5977236;23;20091;-84
2022/12/15 06:13:22;;;;;;;23.15;14.13;;;-2.00;99.90;;;;;;6001035;23;20067;-85
2022/12/15 06:15:56;;;;;;;22.58;14.18;;;-2.00;99.90;;;;;;5999534;23;20638;-84
2022/12/15 06:18:23;;;;;;;23.35;13.40;;;-1.90;99.90;;;;;;6000806;23;20118;-84
2022/12/15 06:21:04;;;;;;;20.88;12.70;;;-2.00;99.90;;;;;;6000983;23;20015;-85
2022/12/15 06:23:31;;;;;;;21.63;13.13;;;-1.90;99.90;;;;;;5977974;23;20044;-84
2022/12/15 06:25:58;;;;;;;21.63;13.18;;;-1.80;99.90;;;;;;5977272;23;20020;-84
2022/12/15 06:28:24;;;;;;;25.85;12.73;;;-1.80;99.90;;;;;;5976779;23;20134;-85
2022/12/15 06:30:59;;;;;;;20.40;12.43;;;-1.70;99.90;;;;;;5977561;23;20041;-85
2022/12/15 06:33:27;;;;;;;22.58;12.77;;;-1.60;99.90;;;;;;6000786;23;20438;-84
2022/12/15 06:35:53;;;;;;;19.88;11.93;;;-1.60;99.90;;;;;;6002313;23;20019;-85
2022/12/15 06:38:18;;;;;;;20.38;11.23;;;-1.50;99.90;;;;;;5978681;23;20515;-85
2022/12/15 06:40:44;;;;;;;21.50;11.98;;;-1.50;99.90;;;;;;6002856;23;20445;-85
2022/12/15 06:43:13;;;;;;;20.27;11.68;;;-1.40;99.90;;;;;;6000823;23;20066;-85
2022/12/15 06:45:38;;;;;;;19.33;11.30;;;-1.50;99.90;;;;;;5977202;23;20026;-84
2022/12/15 06:48:04;;;;;;;18.80;11.88;;;-1.50;99.90;;;;;;6020148;23;20024;-84
2022/12/15 06:50:30;;;;;;;17.60;10.68;;;-1.50;99.90;;;;;;6025578;23;20094;-84
2022/12/15 06:52:57;;;;;;;17.63;9.75;;;-1.60;99.90;;;;;;6024427;23;20453;-83
2022/12/15 06:55:23;;;;;;;15.15;9.90;;;-1.60;99.90;;;;;;6001072;23;20050;-83
2022/12/15 06:57:49;;;;;;;17.50;9.80;;;-1.60;99.90;;;;;;6000422;23;20350;-83
2022/12/15 07:00:15;;;;;;;15.40;9.43;;;-1.50;99.90;;;;;;5998714;23;20464;-84
2022/12/15 07:02:41;;;;;;;17.80;9.63;;;-1.50;99.90;;;;;;6000952;23;20042;-84
2022/12/15 07:05:08;;;;;;;14.45;8.98;;;-1.60;99.90;;;;;;6025956;23;20425;-84
2022/12/15 07:07:33;;;;;;;15.23;9.20;;;-1.60;99.90;;;;;;6073414;23;20019;-84
2022/12/15 07:09:59;;;;;;;14.80;8.98;;;-1.50;99.90;;;;;;6000789;23;20094;-83
2022/12/15 07:12:25;;;;;;;18.50;9.52;;;-1.60;99.90;;;;;;6026552;23;20027;-83
2022/12/15 07:14:50;;;;;;;15.38;8.80;;;-1.60;99.90;;;;;;5998851;23;20026;-83
2022/12/15 07:17:16;;;;;;;16.15;8.57;;;-1.50;99.90;;;;;;6073060;23;20012;-82
2022/12/15 07:19:45;;;;;;;21.08;9.60;;;-1.60;99.90;;;;;;6049314;23;20143;-83
2022/12/15 07:22:10;;;;;;;16.20;9.25;;;-1.60;99.90;;;;;;6049383;23;20023;-83
2022/12/15 07:24:36;;;;;;;15.57;8.77;;;-1.60;99.90;;;;;;6073089;23;20018;-83
2022/12/15 07:27:01;;;;;;;17.15;9.10;;;-1.60;99.90;;;;;;6049615;23;20012;-84
2022/12/15 07:29:27;;;;;;;15.70;8.95;;;-1.60;99.90;;;;;;6072306;23;20074;-84
2022/12/15 07:31:52;;;;;;;19.05;8.70;;;-1.60;99.90;;;;;;6024160;23;20409;-83
2022/12/15 07:34:18;;;;;;;16.58;9.05;;;-1.60;99.90;;;;;;6000552;23;20019;-84
2022/12/15 07:36:44;;;;;;;16.17;9.50;;;-1.60;99.90;;;;;;6001171;23;20019;-84
2022/12/15 07:39:13;;;;;;;20.77;8.88;;;-1.60;99.90;;;;;;6001008;23;20050;-83
2022/12/15 07:41:39;;;;;;;15.40;9.13;;;-1.50;99.90;;;;;;6000658;23;20030;-84
2022/12/15 07:44:05;;;;;;;16.52;8.70;;;-1.60;99.90;;;;;;6071633;23;20075;-84
2022/12/15 07:46:30;;;;;;;14.30;8.65;;;-1.60;99.90;;;;;;6072121;23;20019;-83
2022/12/15 07:48:56;;;;;;;14.13;8.57;;;-1.60;99.90;;;;;;6024788;23;20479;-84
2022/12/15 07:51:22;;;;;;;15.23;9.75;;;-1.70;99.90;;;;;;6024797;23;20130;-83
2022/12/15 07:53:49;;;;;;;18.42;10.23;;;-1.70;99.90;;;;;;6001196;23;20022;-83
2022/12/15 07:56:15;;;;;;;16.73;9.75;;;-1.80;99.90;;;;;;6001214;23;20026;-83
2022/12/15 07:58:41;;;;;;;16.75;10.05;;;-1.70;99.90;;;;;;5999688;23;20086;-84
2022/12/15 08:01:09;;;;;;;19.38;10.55;;;-1.80;99.90;;;;;;6002247;23;20012;-83
2022/12/15 08:03:35;;;;;;;17.45;9.52;;;-1.80;99.90;;;;;;6001498;23;20082;-84
2022/12/15 08:06:09;;;;;;;16.10;9.38;;;-1.80;99.90;;;;;;6001515;23;20378;-84
2022/12/15 08:08:35;;;;;;;19.70;10.93;;;-1.70;99.90;;;;;;5977756;23;20035;-84
2022/12/15 08:11:05;;;;;;;17.55;10.30;;;-1.80;99.90;;;;;;6001046;23;20030;-83
2022/12/15 08:13:34;;;;;;;15.90;9.00;;;-1.70;99.90;;;;;;5999902;23;20023;-82
2022/12/15 08:16:00;;;;;;;17.17;9.48;;;-1.70;99.90;;;;;;6000908;23;20042;-83
2022/12/15 08:18:26;;;;;;;18.95;10.18;;;-1.70;99.90;;;;;;5977906;23;20383;-84
2022/12/15 08:20:52;;;;;;;17.70;10.13;;;-1.60;99.90;;;;;;6002333;23;20019;-83
2022/12/15 08:23:17;;;;;;;17.90;10.05;;;-1.60;99.90;;;;;;5979205;23;20070;-83
2022/12/15 08:25:43;;;;;;;14.43;9.15;;;-1.50;99.90;;;;;;6001733;23;20042;-84
2022/12/15 08:28:09;;;;;;;15.93;9.18;;;-1.50;99.90;;;;;;6024296;23;20084;-84
2022/12/15 08:30:35;;;;;;;22.48;9.75;;;-1.40;99.90;;;;;;6023474;23;20015;-84
2022/12/15 08:33:02;;;;;;;15.27;9.77;;;-1.40;99.90;;;;;;5978641;23;20023;-84
2022/12/15 08:35:28;;;;;;;16.88;9.93;;;-1.40;99.90;;;;;;6001314;23;20061;-84
2022/12/15 08:37:54;;;;;;;16.90;9.00;;;-1.30;99.90;;;;;;5977786;23;20019;-83
2022/12/15 08:40:20;;;;;;;15.00;9.18;;;-1.30;99.90;;;;;;5977912;23;20488;-84
2022/12/15 08:42:47;;;;;;;16.77;10.50;;;-1.20;99.90;;;;;;5977524;23;20349;-83
2022/12/15 08:45:12;;;;;;;19.38;10.15;;;-1.20;99.90;;;;;;5975546;23;20012;-84
2022/12/15 08:47:38;;;;;;;15.95;10.55;;;-1.10;99.90;;;;;;5990700;23;20515;-83
2022/12/15 08:50:08;;;;;;;17.08;10.13;;;-1.10;99.90;;;;;;6000432;23;20015;-82
2022/12/15 08:52:34;;;;;;;16.52;10.32;;;-1.10;99.90;;;;;;6003516;23;20067;-84
2022/12/15 08:55:00;;;;;;;14.75;10.05;;;-1.10;99.90;;;;;;6000255;23;20022;-84
2022/12/15 08:57:26;;;;;;;16.42;10.07;;;-1.00;99.90;;;;;;6002163;23;20030;-83
2022/12/15 08:59:51;;;;;;;15.63;10.02;;;-1.10;99.90;;;;;;5999454;23;20039;-83
2022/12/15 09:02:17;;;;;;;15.82;10.27;;;-1.00;99.90;;;;;;6000948;23;20026;-84
2022/12/15 09:04:44;;;;;;;20.65;10.98;;;-1.00;99.90;;;;;;6024786;23;20012;-83
2022/12/15 09:07:10;;;;;;;16.70;10.07;;;-0.90;99.90;;;;;;6024918;23;20094;-83
2022/12/15 09:09:35;;;;;;;16.80;10.77;;;-0.90;99.90;;;;;;6024458;23;20094;-83
2022/12/15 09:12:01;;;;;;;17.88;10.60;;;-0.80;99.90;;;;;;6001749;23;20029;-83
2022/12/15 09:14:27;;;;;;;24.23;12.15;;;-0.80;99.90;;;;;;6023780;23;20467;-83
2022/12/15 09:16:52;;;;;;;15.85;10.60;;;-0.70;99.90;;;;;;6000386;23;20526;-83
2022/12/15 09:19:18;;;;;;;16.80;10.25;;;-0.70;99.90;;;;;;6025260;23;20015;-83
2022/12/15 09:21:43;;;;;;;18.60;10.77;;;-0.60;99.90;;;;;;6025232;23;20094;-83
2022/12/15 09:24:16;;;;;;;17.00;11.02;;;-0.40;99.90;;;;;;6001329;23;20050;-83
2022/12/15 09:26:43;;;;;;;18.88;11.13;;;-0.40;99.90;;;;;;6022965;23;20537;-83
2022/12/15 09:29:13;;;;;;;18.10;11.18;;;-0.30;99.90;;;;;;6000400;23;20034;-83
2022/12/15 09:31:38;;;;;;;19.42;10.40;;;-0.30;99.90;;;;;;6001009;23;20433;-82
2022/12/15 09:34:04;;;;;;;17.00;10.90;;;-0.20;99.90;;;;;;6000280;23;20038;-82
2022/12/15 09:36:33;;;;;;;18.42;10.63;;;-0.20;99.90;;;;;;6024261;23;20026;-82
2022/12/15 09:39:00;;;;;;;19.58;11.05;;;-0.30;99.90;;;;;;5999252;23;20062;-82
2022/12/15 09:41:37;;;;;;;18.17;11.38;;;-0.40;99.90;;;;;;6000435;23;20050;-82
2022/12/15 09:44:09;;;;;;;18.40;11.27;;;-0.40;99.90;;;;;;6022232;23;20046;-82
2022/12/15 09:47:04;;;;;;;16.00;11.57;;;-0.40;99.90;;;;;;6000290;23;20024;-82
2022/12/15 09:49:48;;;;;;;;;;;-0.40;99.90;;;;;;6024284;23;20027;-82
2022/12/15 09:52:24;;;;;;;16.02;10.55;;;-0.50;99.90;;;;;;6023545;23;19929;-82
2022/12/15 09:54:49;;;;;;;16.92;10.90;;;-0.40;99.90;;;;;;5999767;23;20027;-83
2022/12/15 09:57:43;;;;;;;18.00;11.82;;;-0.30;99.90;;;;;;6024052;23;20023;-82
2022/12/15 10:00:36;;;;;;;17.73;11.15;;;-0.30;99.90;;;;;;5997843;23;20023;-82
2022/12/15 10:03:08;;;;;;;17.10;11.07;;;-0.20;99.90;;;;;;6022848;23;20012;-82
2022/12/15 10:05:39;;;;;;;18.45;11.95;;;-0.20;99.90;;;;;;6024128;23;20751;-81
2022/12/15 10:08:05;;;;;;;19.70;11.27;;;-0.10;99.90;;;;;;6024625;23;20401;-81
2022/12/15 10:10:38;;;;;;;19.40;11.30;;;0.00;99.90;;;;;;6000383;23;20026;-81
2022/12/15 10:13:11;;;;;;;16.52;11.00;;;0.00;99.90;;;;;;6025147;23;20020;-81
2022/12/15 10:15:59;;;;;;;17.00;11.27;;;0.10;99.90;;;;;;5999276;23;20499;-81
2022/12/15 10:18:38;;;;;;;17.45;11.77;;;0.20;99.90;;;;;;5969551;23;20038;-81
2022/12/15 10:21:08;;;;;;;18.27;11.75;;;0.30;99.90;;;;;;6025138;23;20027;-81
2022/12/15 10:23:35;;;;;;;17.27;11.15;;;0.30;99.90;;;;;;6023260;23;20019;-80
2022/12/15 10:26:19;;;;;;;17.00;10.77;;;0.40;99.90;;;;;;6000544;23;20015;-80
2022/12/15 10:29:09;;;;;;;16.90;11.30;;;0.40;99.90;;;;;;6023974;23;20016;-81
2022/12/15 10:31:48;;;;;;;18.38;11.10;;;0.50;99.90;;;;;;5999698;23;20058;-81
2022/12/15 10:34:42;;;;;;;13.98;9.75;;;0.60;99.90;;;;;;5999458;23;20016;-81
2022/12/15 10:37:17;;;;;;;19.20;11.30;;;0.70;99.90;;;;;;6024400;23;20367;-81
2022/12/15 10:39:49;;;;;;;17.00;11.07;;;0.70;99.90;;;;;;6000249;23;20306;-81
2022/12/15 10:42:23;;;;;;;14.88;10.85;;;0.80;99.90;;;;;;5999036;23;20020;-81
2022/12/15 10:44:51;;;;;;;;;;;0.90;99.90;;;;;;5999120;23;20023;-81
2022/12/15 10:47:21;;;;;;;18.77;10.45;;;0.90;99.90;;;;;;6013492;23;20360;-82
2022/12/15 10:49:47;;;;;;;18.27;10.15;;;1.00;99.90;;;;;;5976792;23;20019;-81
2022/12/15 10:52:34;;;;;;;13.88;9.40;;;1.00;99.90;;;;;;5977052;23;20019;-82
2022/12/15 10:55:00;;;;;;;16.40;11.00;;;1.00;99.90;;;;;;5999567;23;20015;-82
2022/12/15 10:57:29;;;;;;;17.83;10.80;;;1.10;99.90;;;;;;6000964;23;20023;-81
2022/12/15 11:00:11;;;;;;;17.25;10.95;;;1.20;99.90;;;;;;5997700;23;20019;-82
2022/12/15 11:02:37;;;;;;;14.48;9.90;;;1.20;99.90;;;;;;6000813;23;20484;-81
2022/12/15 11:05:15;;;;;;;16.80;10.27;;;1.20;99.90;;;;;;5978259;23;20584;-81
2022/12/15 11:07:49;;;;;;;19.27;10.07;;;1.20;99.90;;;;;;6001204;23;20347;-82
2022/12/15 11:10:22;;;;;;;15.00;9.93;;;1.30;99.90;;;;;;5976738;23;20015;-82
2022/12/15 11:13:12;;;;;;;15.13;9.52;;;1.30;99.90;;;;;;5978978;23;20133;-81
2022/12/15 11:15:50;;;;;;;16.60;9.80;;;1.30;99.90;;;;;;5975775;23;20026;-82
2022/12/15 11:18:33;;;;;;;15.73;9.63;;;1.30;99.90;;;;;;5999460;23;20059;-82
2022/12/15 11:21:16;;;;;;;16.20;9.82;;;1.40;99.90;;;;;;6049466;23;20061;-82
2022/12/15 11:24:00;;;;;;;19.42;10.18;;;1.40;99.90;;;;;;5975979;23;20015;-81
2022/12/15 11:26:32;;;;;;;15.23;9.40;;;1.50;99.90;;;;;;6000427;23;20625;-83
2022/12/15 11:29:16;;;;;;;14.82;9.13;;;1.50;99.90;;;;;;6047376;23;20019;-81
2022/12/15 11:31:47;;;;;;;13.15;9.23;;;1.50;99.90;;;;;;6047014;23;20049;-82
2022/12/15 11:34:25;;;;;;;14.20;9.52;;;1.60;99.90;;;;;;5976804;23;20082;-82
2022/12/15 11:37:27;;;;;;;18.05;9.25;;;1.60;99.90;;;;;;5977191;23;20019;-82
2022/12/15 11:40:16;;;;;;;17.77;9.85;;;1.60;99.90;;;;;;6047442;23;20026;-81
2022/12/15 11:42:50;;;;;;;16.00;10.23;;;1.70;99.90;;;;;;6047265;23;20716;-82
2022/12/15 11:45:53;;;;;;;17.40;9.55;;;1.70;99.90;;;;;;5998248;23;20057;-82
2022/12/15 11:48:31;;;;;;;17.27;10.18;;;1.70;99.90;;;;;;6020869;23;20046;-82
2022/12/15 11:51:12;;;;;;;19.00;9.95;;;1.70;99.90;;;;;;6023877;23;20015;-82
2022/12/15 11:54:08;;;;;;;17.20;9.52;;;1.70;99.90;;;;;;6000252;23;20801;-82
2022/12/15 11:56:43;;;;;;;16.00;10.02;;;1.70;99.90;;;;;;6023790;23;20283;-82
2022/12/15 11:59:28;;;;;;;15.80;9.55;;;1.80;99.90;;;;;;6022865;23;20538;-82
2022/12/15 12:02:23;;;;;;;14.77;9.30;;;1.80;99.90;;;;;;6023559;23;20456;-81
2022/12/15 12:05:17;;;;;;;15.57;8.63;;;1.80;99.90;;;;;;6047784;23;20097;-82
2022/12/15 12:07:47;;;;;;;14.85;8.98;;;1.90;99.90;;;;;;6024148;23;20012;-82
2022/12/15 12:10:22;;;;;;;15.65;10.10;;;1.90;99.90;;;;;;6023030;23;20007;-82
2022/12/15 12:12:50;;;;;;;16.63;10.35;;;2.00;99.90;;;;;;6024122;23;20023;-82
2022/12/15 12:15:44;;;;;;;13.68;8.50;;;2.00;99.90;;;;;;6021039;23;20128;-82
2022/12/15 12:18:23;;;;;;;14.43;8.30;;;2.10;99.90;;;;;;6047067;23;20030;-82
2022/12/15 12:20:57;;;;;;;14.73;8.45;;;2.10;99.90;;;;;;5999894;23;20015;-82
2022/12/15 12:23:28;;;;;;;17.15;8.68;;;2.10;99.90;;;;;;6023076;23;20053;-82
2022/12/15 12:26:09;;;;;;;16.63;8.88;;;2.30;99.90;;;;;;5999868;23;20519;-82
2022/12/15 12:29:17;;;;;;;16.52;8.40;;;2.20;99.90;;;;;;5997416;23;20035;-81
2022/12/15 12:32:20;;;;;;;13.95;8.30;;;2.30;99.90;;;;;;6069796;23;20469;-82
2022/12/15 12:34:59;;;;;;;17.95;9.13;;;2.30;99.90;;;;;;5991194;23;20397;-82
2022/12/15 12:37:35;;;;;;;14.32;8.75;;;2.30;99.90;;;;;;6023677;23;20025;-82
2022/12/15 12:40:23;;;;;;;11.93;8.00;;;2.30;99.90;;;;;;6046987;23;20465;-82
2022/12/15 12:42:59;;;;;;;13.05;8.38;;;2.40;99.90;;;;;;5999996;23;20044;-82
2022/12/15 12:45:43;;;;;;;18.23;9.18;;;2.50;99.90;;;;;;6020372;23;20023;-82
2022/12/15 12:48:21;;;;;;;15.90;9.20;;;2.50;99.90;;;;;;6022833;23;20023;-81
2022/12/15 12:50:47;;;;;;;12.48;8.00;;;2.40;99.90;;;;;;5999361;23;20015;-82
2022/12/15 12:53:33;;;;;;;16.65;8.48;;;2.50;99.90;;;;;;5999131;23;20439;-82
2022/12/15 12:55:59;;;;;;;15.05;8.98;;;2.50;99.90;;;;;;5998828;23;20019;-82
2022/12/15 12:58:44;;;;;;;17.33;9.13;;;2.50;99.90;;;;;;6069410;23;20023;-82
2022/12/15 13:01:09;;;;;;;;;;;2.50;99.90;;;;;;6023051;23;20113;-82
2022/12/15 13:03:40;;;;;;;14.07;8.80;;;2.50;99.90;;;;;;6022523;23;20084;-82
2022/12/15 13:06:39;;;;;;;10.80;7.43;;;2.60;99.90;;;;;;5999312;23;20098;-82
2022/12/15 13:09:38;;;;;;;13.15;7.80;;;2.60;99.90;;;;;;6023984;23;20019;-82
2022/12/15 13:12:25;;;;;;;13.95;7.97;;;2.70;99.90;;;;;;5995146;23;20106;-82
2022/12/15 13:14:53;;;;;;;13.00;7.15;;;2.70;99.90;;;;;;6020146;23;20019;-83
2022/12/15 13:17:31;;;;;;;13.90;8.00;;;2.80;99.90;;;;;;6047371;23;20016;-81
2022/12/15 13:20:00;;;;;;;11.85;8.13;;;2.80;99.90;;;;;;5998724;23;20479;-82
2022/12/15 13:22:36;;;;;;;15.43;8.43;;;2.80;99.90;;;;;;6024011;23;20038;-82
2022/12/15 13:25:35;;;;;;;13.18;8.63;;;2.80;99.90;;;;;;6025227;23;20026;-82
2022/12/15 13:28:16;;;;;;;18.13;8.40;;;2.90;99.90;;;;;;6023418;23;20019;-82
2022/12/15 13:31:16;;;;;;;13.90;8.00;;;3.20;99.90;;;;;;6022693;23;20257;-81
2022/12/15 13:33:53;;;;;;;13.48;8.00;;;3.40;99.90;;;;;;6022950;23;20106;-82
2022/12/15 13:36:38;;;;;;;14.05;8.27;;;3.40;99.90;;;;;;6022794;23;20023;-82
2022/12/15 13:39:15;;;;;;;13.77;7.35;;;3.70;99.90;;;;;;6023046;23;20023;-82
2022/12/15 13:41:47;;;;;;;13.77;7.68;;;3.80;99.90;;;;;;6025806;23;20464;-82
2022/12/15 13:44:53;;;;;;;14.43;7.32;;;3.90;99.90;;;;;;6023557;23;20090;-82
2022/12/15 13:47:28;;;;;;;11.32;7.32;;;3.90;99.90;;;;;;6000570;23;20412;-82
2022/12/15 13:50:00;;;;;;;12.93;7.75;;;3.90;99.90;;;;;;6072894;23;20027;-82
2022/12/15 13:52:48;;;;;;;16.13;7.38;;;3.80;99.90;;;;;;6049697;23;20110;-82
2022/12/15 13:55:23;;;;;;;12.82;7.88;;;3.60;99.90;;;;;;6072545;23;20819;-82
2022/12/15 13:58:13;;;;;;;13.90;8.07;;;3.40;99.90;;;;;;6002019;23;20307;-82
2022/12/15 14:00:50;;;;;;;16.15;8.35;;;3.20;99.90;;;;;;6001591;23;20241;-82
2022/12/15 14:03:16;;;;;;;13.40;8.05;;;3.00;99.90;;;;;;6025006;23;20064;-82
2022/12/15 14:05:57;;;;;;;13.57;7.85;;;3.00;99.90;;;;;;6001156;23;20042;-82
2022/12/15 14:08:25;;;;;;;13.10;9.05;;;2.80;99.90;;;;;;6048141;23;20019;-82
2022/12/15 14:10:57;;;;;;;12.20;8.77;;;2.80;99.90;;;;;;6072888;23;20363;-82
2022/12/15 14:13:32;;;;;;;14.85;8.82;;;2.80;99.90;;;;;;6023667;23;20015;-82
2022/12/15 14:16:13;;;;;;;13.43;8.65;;;2.70;99.90;;;;;;6047673;23;20016;-81
2022/12/15 14:18:41;;;;;;;15.30;8.35;;;2.70;99.90;;;;;;6022931;23;20460;-82
2022/12/15 14:21:20;;;;;;;16.67;9.75;;;2.70;99.90;;;;;;6001225;23;20348;-82
2022/12/15 14:23:45;;;;;;;20.55;9.70;;;2.70;99.90;;;;;;6025796;23;20023;-82
2022/12/15 14:26:13;;;;;;;15.68;9.23;;;2.70;99.90;;;;;;6000515;23;20322;-82
2022/12/15 14:28:46;;;;;;;14.52;9.45;;;2.50;99.90;;;;;;6024264;23;20659;-80
2022/12/15 14:31:22;;;;;;;16.48;8.98;;;2.60;99.90;;;;;;6055390;23;20433;-80
2022/12/15 14:34:33;;;;;;;15.65;9.50;;;2.60;99.90;;;;;;6073899;23;20019;-80
2022/12/15 14:37:02;;;;;;;14.57;9.70;;;2.60;99.90;;;;;;5995029;23;20022;-80
2022/12/15 14:39:42;;;;;;;15.32;9.68;;;2.50;99.90;;;;;;6025501;23;20018;-80
2022/12/15 14:42:17;;;;;;;18.17;8.93;;;2.40;99.90;;;;;;6002359;23;20019;-80
2022/12/15 14:44:45;;;;;;;15.15;9.10;;;2.30;99.90;;;;;;6024919;23;20465;-80
2022/12/15 14:47:33;;;;;;;17.20;9.45;;;2.40;99.90;;;;;;6071722;23;20063;-80
2022/12/15 14:50:02;;;;;;;16.17;9.35;;;2.30;99.90;;;;;;6025753;23;20022;-80
2022/12/15 14:52:35;;;;;;;13.63;9.68;;;2.30;99.90;;;;;;6002340;23;20079;-80
2022/12/15 14:55:22;;;;;;;17.58;10.05;;;2.30;99.90;;;;;;6073492;23;20483;-80
2022/12/15 14:57:51;;;;;;;18.17;10.20;;;2.20;99.90;;;;;;6025077;23;20075;-80
2022/12/15 15:00:35;;;;;;;16.13;9.52;;;2.30;99.90;;;;;;6022716;23;20437;-80
2022/12/15 15:03:17;;;;;;;16.53;9.97;;;2.10;99.90;;;;;;6025840;23;20020;-80
2022/12/15 15:05:46;;;;;;;17.70;10.82;;;2.10;99.90;;;;;;6073937;23;20011;-80
2022/12/15 15:08:23;;;;;;;18.83;10.38;;;2.00;99.90;;;;;;6026442;23;20046;-80
2022/12/15 15:10:49;;;;;;;13.68;10.18;;;1.90;99.90;;;;;;6025433;23;20015;-80
2022/12/15 15:13:19;;;;;;;15.10;10.07;;;1.80;99.90;;;;;;6000915;23;20015;-81
2022/12/15 15:15:59;;;;;;;15.00;9.50;;;1.80;99.90;;;;;;6000682;23;20019;-80
2022/12/15 15:18:27;;;;;;;14.45;9.68;;;1.90;99.90;;;;;;5999488;23;20058;-80
2022/12/15 15:20:59;;;;;;;15.90;9.27;;;1.90;99.90;;;;;;6024285;23;20015;-80
2022/12/15 15:23:24;;;;;;;15.23;10.52;;;1.90;99.90;;;;;;6026024;23;20026;-80
2022/12/15 15:25:56;;;;;;;19.17;10.32;;;1.90;99.90;;;;;;6001990;23;20015;-80
2022/12/15 15:28:28;;;;;;;18.13;10.48;;;1.80;99.90;;;;;;6002038;23;20144;-80
2022/12/15 15:30:56;;;;;;;19.20;11.48;;;1.80;99.90;;;;;;6000361;23;20172;-80
2022/12/15 15:33:21;;;;;;;15.75;10.48;;;1.70;99.90;;;;;;6025742;23;20106;-80